Time;durP1;ratioP1;P1;durP2;ratioP2;P2;SDS_P1;SDS_P2;PMS_P1;PMS_P2;Temp;Humidity;BMP_temperature;BMP_pressure;BME280_temperature;BME280_humidity;BME280_pressure;Samples;Min_cycle;Max_cycle;Signal;HPM_P1;HPM_P2
2023/03/27 00:02:19;;;;;;;13.23;1.75;;;;;;;;;;5005690;28;20056;-74
2023/03/27 00:04:44;;;;;;;12.68;1.60;;;;;;;;;;4993122;28;20026;-74
2023/03/27 00:07:11;;;;;;;13.00;1.63;;;;;;;;;;4997367;28;20029;-75
2023/03/27 00:09:37;;;;;;;11.85;1.77;;;;;;;;;;4995936;28;20566;-75
2023/03/27 00:12:03;;;;;;;11.13;1.80;;;;;;;;;;4997257;28;20113;-75
2023/03/27 00:14:29;;;;;;;11.88;1.67;;;;;;;;;;4996850;28;20454;-75
2023/03/27 00:16:56;;;;;;;15.23;2.15;;;;;;;;;;4997272;28;20022;-75
2023/03/27 00:19:22;;;;;;;15.80;1.80;;;;;;;;;;4997139;28;20029;-75
2023/03/27 00:21:47;;;;;;;11.73;1.65;;;;;;;;;;4995913;28;20037;-75
2023/03/27 00:24:14;;;;;;;15.98;1.80;;;;;;;;;;4996931;28;20026;-75
2023/03/27 00:26:41;;;;;;;14.30;1.80;;;;;;;;;;4997142;28;20535;-74
2023/03/27 00:29:07;;;;;;;11.52;1.58;;;;;;;;;;4997143;28;20033;-75
2023/03/27 00:31:32;;;;;;;14.05;1.85;;;;;;;;;;4997050;28;20018;-75
2023/03/27 00:33:58;;;;;;;13.65;2.08;;;;;;;;;;4996741;28;20026;-75
2023/03/27 00:36:23;;;;;;;12.50;1.75;;;;;;;;;;4996980;28;20104;-74
2023/03/27 00:38:51;;;;;;;12.80;1.77;;;;;;;;;;5012238;28;20030;-74
2023/03/27 00:41:17;;;;;;;13.43;2.55;;;;;;;;;;4997034;28;20034;-74
2023/03/27 00:43:43;;;;;;;12.93;1.83;;;;;;;;;;4996913;28;20038;-74
2023/03/27 00:46:18;;;;;;;9.02;1.48;;;;;;;;;;4996997;28;20029;-74
2023/03/27 00:48:48;;;;;;;14.93;1.90;;;;;;;;;;4995615;28;20049;-74
2023/03/27 00:51:15;;;;;;;15.00;1.88;;;;;;;;;;4996694;28;20029;-74
2023/03/27 00:53:41;;;;;;;10.93;1.70;;;;;;;;;;4996832;28;20056;-74
2023/03/27 00:56:08;;;;;;;15.20;2.20;;;;;;;;;;4996745;28;20026;-74
2023/03/27 00:58:43;;;;;;;13.93;2.00;;;;;;;;;;4996812;28;20037;-75
2023/03/27 01:01:13;;;;;;;12.45;1.90;;;;;;;;;;4996908;28;20494;-74
2023/03/27 01:03:40;;;;;;;11.82;1.55;;;;;;;;;;4996662;28;20076;-74
2023/03/27 01:06:07;;;;;;;14.02;2.45;;;;;;;;;;4996402;28;20037;-75
2023/03/27 01:08:35;;;;;;;10.98;1.80;;;;;;;;;;4995438;28;20018;-74
2023/03/27 01:11:07;;;;;;;12.57;1.80;;;;;;;;;;4996743;28;20026;-74
2023/03/27 01:13:48;;;;;;;13.95;1.92;;;;;;;;;;4995451;28;20069;-75
2023/03/27 01:16:36;;;;;;;13.23;1.73;;;;;;;;;;4995041;28;20618;-74
2023/03/27 01:19:44;;;;;;;12.95;1.70;;;;;;;;;;4992747;28;20033;-74
2023/03/27 01:22:27;;;;;;;16.80;2.05;;;;;;;;;;4982808;28;20100;-75
2023/03/27 01:25:09;;;;;;;12.30;1.58;;;;;;;;;;5008229;28;20030;-75
2023/03/27 01:28:07;;;;;;;11.10;2.25;;;;;;;;;;4993500;28;20031;-75
2023/03/27 01:30:45;;;;;;;10.27;1.73;;;;;;;;;;4992223;28;20034;-75
2023/03/27 01:33:35;;;;;;;14.05;1.67;;;;;;;;;;4993546;28;20157;-75
2023/03/27 01:36:26;;;;;;;11.90;1.63;;;;;;;;;;4991858;28;20037;-75
2023/03/27 01:39:16;;;;;;;19.45;2.17;;;;;;;;;;4993364;28;20102;-75
2023/03/27 01:41:51;;;;;;;9.87;1.50;;;;;;;;;;4993233;28;20529;-75
2023/03/27 01:44:53;;;;;;;14.40;1.80;;;;;;;;;;4993013;28;20073;-75
2023/03/27 01:47:43;;;;;;;12.68;1.88;;;;;;;;;;4980947;28;20042;-75
2023/03/27 01:50:38;;;;;;;13.73;1.93;;;;;;;;;;4993171;28;20034;-75
2023/03/27 01:53:11;;;;;;;9.80;1.75;;;;;;;;;;4992845;28;20038;-75
2023/03/27 01:55:42;;;;;;;14.45;1.88;;;;;;;;;;4992924;28;20058;-75
2023/03/27 01:58:13;;;;;;;12.00;1.80;;;;;;;;;;4993080;28;20585;-75
2023/03/27 02:00:43;;;;;;;17.27;1.88;;;;;;;;;;4992788;28;20033;-75
2023/03/27 02:03:12;;;;;;;11.93;1.90;;;;;;;;;;4991613;28;20037;-75
2023/03/27 02:05:46;;;;;;;12.10;1.70;;;;;;;;;;4992667;28;20030;-75
2023/03/27 02:08:41;;;;;;;16.88;1.83;;;;;;;;;;4991316;28;20018;-75
2023/03/27 02:11:07;;;;;;;15.05;1.88;;;;;;;;;;4991913;28;20026;-75
2023/03/27 02:13:47;;;;;;;15.18;1.70;;;;;;;;;;4991211;28;20039;-74
2023/03/27 02:16:17;;;;;;;11.52;1.83;;;;;;;;;;4993477;28;20030;-75
2023/03/27 02:18:48;;;;;;;15.45;1.92;;;;;;;;;;4993384;28;20045;-75
2023/03/27 02:21:14;;;;;;;14.00;1.52;;;;;;;;;;4992427;28;20026;-75
2023/03/27 02:23:40;;;;;;;9.10;1.67;;;;;;;;;;4992354;28;20026;-77
2023/03/27 02:26:10;;;;;;;16.20;1.80;;;;;;;;;;4992420;28;20145;-75
2023/03/27 02:28:58;;;;;;;9.27;1.35;;;;;;;;;;4991276;28;20031;-75
2023/03/27 02:31:35;;;;;;;12.35;1.58;;;;;;;;;;4992237;28;20057;-75
2023/03/27 02:34:20;;;;;;;9.23;1.95;;;;;;;;;;4990827;28;20037;-75
2023/03/27 02:37:03;;;;;;;9.95;1.67;;;;;;;;;;4991752;28;20023;-75
2023/03/27 02:39:53;;;;;;;6.18;1.30;;;;;;;;;;4992282;28;20552;-74
2023/03/27 02:42:46;;;;;;;12.40;1.25;;;;;;;;;;4991985;28;20397;-75
2023/03/27 02:45:27;;;;;;;11.30;1.45;;;;;;;;;;4991860;28;20033;-75
2023/03/27 02:48:08;;;;;;;9.23;1.42;;;;;;;;;;4992053;28;20032;-75
2023/03/27 02:50:47;;;;;;;9.20;1.30;;;;;;;;;;4991823;28;20026;-75
2023/03/27 02:53:17;;;;;;;11.00;1.20;;;;;;;;;;4991667;28;20046;-75
2023/03/27 02:55:44;;;;;;;;;;;;;;;;;;4992221;28;20030;-75
2023/03/27 02:58:18;;;;;;;9.38;1.20;;;;;;;;;;4990459;28;19917;-75
2023/03/27 03:00:47;;;;;;;10.70;1.23;;;;;;;;;;4991751;28;20046;-74
2023/03/27 03:03:29;;;;;;;8.15;1.40;;;;;;;;;;4990319;28;20038;-75
2023/03/27 03:05:56;;;;;;;12.82;1.33;;;;;;;;;;4991388;28;20037;-74
2023/03/27 03:08:21;;;;;;;10.23;1.38;;;;;;;;;;4990382;28;20038;-75
2023/03/27 03:10:47;;;;;;;8.75;1.40;;;;;;;;;;4991505;28;20561;-74
2023/03/27 03:13:17;;;;;;;8.35;1.27;;;;;;;;;;4991442;28;20042;-74
2023/03/27 03:15:44;;;;;;;11.43;1.58;;;;;;;;;;4991402;28;20030;-74
2023/03/27 03:18:11;;;;;;;10.70;1.25;;;;;;;;;;5006691;28;20085;-74
2023/03/27 03:20:38;;;;;;;8.77;1.27;;;;;;;;;;5006383;28;20125;-74
2023/03/27 03:23:04;;;;;;;14.57;1.60;;;;;;;;;;4991284;28;20038;-75
2023/03/27 03:25:30;;;;;;;11.43;1.70;;;;;;;;;;4990944;28;20027;-74
2023/03/27 03:27:59;;;;;;;10.20;1.73;;;;;;;;;;4991277;28;20539;-74
2023/03/27 03:30:29;;;;;;;8.93;1.50;;;;;;;;;;4991272;28;20041;-75
2023/03/27 03:32:55;;;;;;;10.50;1.20;;;;;;;;;;4991182;28;20038;-74
2023/03/27 03:35:22;;;;;;;9.90;1.40;;;;;;;;;;4990964;28;20300;-74
2023/03/27 03:37:50;;;;;;;9.25;1.80;;;;;;;;;;4990993;28;20506;-74
2023/03/27 03:40:17;;;;;;;10.07;1.25;;;;;;;;;;4973776;28;20047;-75
2023/03/27 03:42:48;;;;;;;9.82;1.58;;;;;;;;;;4990951;28;20113;-74
2023/03/27 03:45:14;;;;;;;13.32;1.80;;;;;;;;;;4990814;28;20670;-74
2023/03/27 03:47:40;;;;;;;7.53;1.20;;;;;;;;;;4991025;28;20629;-74
2023/03/27 03:50:06;;;;;;;12.30;1.40;;;;;;;;;;5006113;28;20034;-75
2023/03/27 03:52:31;;;;;;;9.38;1.40;;;;;;;;;;4990875;28;20523;-74
2023/03/27 03:54:57;;;;;;;7.25;1.30;;;;;;;;;;4991018;28;20027;-74
2023/03/27 03:57:22;;;;;;;9.70;1.23;;;;;;;;;;5005871;28;20649;-74
2023/03/27 03:59:48;;;;;;;9.90;1.35;;;;;;;;;;4990750;28;20033;-74
2023/03/27 04:02:26;;;;;;;9.00;1.52;;;;;;;;;;4990714;28;20034;-74
2023/03/27 04:04:52;;;;;;;9.77;1.30;;;;;;;;;;4990749;28;20018;-75
2023/03/27 04:07:20;;;;;;;12.35;1.52;;;;;;;;;;4990610;28;20106;-74
2023/03/27 04:09:46;;;;;;;7.70;1.27;;;;;;;;;;4990913;28;20019;-74
2023/03/27 04:12:12;;;;;;;9.13;1.23;;;;;;;;;;4991521;28;20030;-74
2023/03/27 04:14:37;;;;;;;9.13;1.77;;;;;;;;;;4991091;28;20035;-74
2023/03/27 04:17:05;;;;;;;15.02;1.52;;;;;;;;;;4991342;28;20470;-75
2023/03/27 04:19:30;;;;;;;12.23;1.73;;;;;;;;;;4990971;28;20029;-74
2023/03/27 04:21:57;;;;;;;18.05;1.85;;;;;;;;;;4990803;28;20023;-75
2023/03/27 04:24:23;;;;;;;8.07;1.40;;;;;;;;;;4990637;28;20045;-74
2023/03/27 04:26:50;;;;;;;8.70;1.50;;;;;;;;;;4990696;28;20393;-74
2023/03/27 04:29:15;;;;;;;11.48;1.75;;;;;;;;;;5005851;28;20023;-74
2023/03/27 04:31:45;;;;;;;11.82;1.55;;;;;;;;;;5005726;28;20076;-74
2023/03/27 04:34:11;;;;;;;12.13;1.40;;;;;;;;;;4990875;28;20394;-74
2023/03/27 04:36:36;;;;;;;8.18;1.80;;;;;;;;;;4988740;28;20481;-74
2023/03/27 04:39:02;;;;;;;13.60;1.48;;;;;;;;;;4990412;28;20486;-74
2023/03/27 04:41:28;;;;;;;7.90;1.67;;;;;;;;;;4990612;28;20490;-74
2023/03/27 04:43:54;;;;;;;9.45;1.50;;;;;;;;;;4990443;28;20026;-75
2023/03/27 04:46:22;;;;;;;12.45;1.85;;;;;;;;;;4988991;28;20413;-75
2023/03/27 04:48:50;;;;;;;11.60;1.63;;;;;;;;;;4989182;28;20042;-74
2023/03/27 04:51:15;;;;;;;11.77;1.73;;;;;;;;;;4990846;28;20022;-74
2023/03/27 04:53:41;;;;;;;16.15;2.03;;;;;;;;;;4994255;28;20117;-74
2023/03/27 04:56:08;;;;;;;15.43;1.60;;;;;;;;;;4993818;28;20050;-74
2023/03/27 04:58:34;;;;;;;8.82;1.42;;;;;;;;;;4993894;28;20592;-74
2023/03/27 05:01:01;;;;;;;12.88;1.67;;;;;;;;;;4994034;28;20098;-74
2023/03/27 05:03:26;;;;;;;10.48;1.80;;;;;;;;;;4994310;28;20161;-74
2023/03/27 05:05:52;;;;;;;8.30;1.60;;;;;;;;;;4994046;28;20104;-75
2023/03/27 05:08:18;;;;;;;9.63;1.60;;;;;;;;;;4994194;28;20026;-74
2023/03/27 05:10:44;;;;;;;15.18;1.70;;;;;;;;;;4992765;28;20512;-74
2023/03/27 05:13:10;;;;;;;10.52;1.92;;;;;;;;;;4993492;28;20030;-74
2023/03/27 05:15:37;;;;;;;12.00;2.08;;;;;;;;;;4992643;28;20034;-74
2023/03/27 05:18:05;;;;;;;11.20;1.65;;;;;;;;;;4993522;28;20117;-74
2023/03/27 05:20:30;;;;;;;10.55;1.67;;;;;;;;;;4993612;28;20031;-74
2023/03/27 05:22:56;;;;;;;10.18;1.52;;;;;;;;;;4993330;28;20551;-74
2023/03/27 05:25:23;;;;;;;10.20;2.05;;;;;;;;;;4993372;28;20042;-74
2023/03/27 05:27:50;;;;;;;10.45;1.88;;;;;;;;;;4993352;28;20072;-74
2023/03/27 05:30:19;;;;;;;13.82;2.13;;;;;;;;;;4993322;28;20112;-74
2023/03/27 05:32:50;;;;;;;11.77;1.40;;;;;;;;;;4993328;28;20036;-74
2023/03/27 05:35:18;;;;;;;8.40;1.40;;;;;;;;;;4993228;28;20019;-74
2023/03/27 05:37:46;;;;;;;11.48;1.70;;;;;;;;;;4991985;28;20053;-74
2023/03/27 05:40:14;;;;;;;6.53;1.40;;;;;;;;;;4993739;28;20022;-74
2023/03/27 05:42:44;;;;;;;11.05;1.73;;;;;;;;;;4993176;28;20030;-74
2023/03/27 05:45:11;;;;;;;8.32;1.50;;;;;;;;;;4993289;28;20077;-74
2023/03/27 05:48:07;;;;;;;12.23;1.90;;;;;;;;;;4991543;28;20035;-74
2023/03/27 05:50:34;;;;;;;17.65;2.33;;;;;;;;;;4988260;28;20409;-74
2023/03/27 05:53:06;;;;;;;10.13;1.85;;;;;;;;;;4993044;28;20053;-74
2023/03/27 05:55:39;;;;;;;11.52;1.98;;;;;;;;;;4993371;28;20026;-75
2023/03/27 05:58:08;;;;;;;10.93;1.80;;;;;;;;;;4993923;28;20033;-75
2023/03/27 06:00:35;;;;;;;9.60;1.60;;;;;;;;;;4994306;28;20054;-75
2023/03/27 06:03:02;;;;;;;9.93;1.67;;;;;;;;;;4993019;28;20030;-74
2023/03/27 06:05:28;;;;;;;14.18;1.67;;;;;;;;;;4993000;28;20033;-73
2023/03/27 06:07:57;;;;;;;12.48;1.88;;;;;;;;;;4992330;28;20026;-73
2023/03/27 06:10:24;;;;;;;6.85;1.30;;;;;;;;;;4991469;28;20026;-74
2023/03/27 06:13:01;;;;;;;8.88;1.70;;;;;;;;;;4992244;28;20034;-74
2023/03/27 06:15:27;;;;;;;12.55;1.70;;;;;;;;;;4991196;28;20042;-74
2023/03/27 06:17:53;;;;;;;8.73;1.42;;;;;;;;;;4992409;28;20105;-74
2023/03/27 06:20:20;;;;;;;13.27;3.72;;;;;;;;;;4992770;28;20168;-75
2023/03/27 06:22:50;;;;;;;13.10;3.03;;;;;;;;;;4992595;28;20030;-74
2023/03/27 06:25:17;;;;;;;10.27;1.92;;;;;;;;;;4992300;28;20629;-75
2023/03/27 06:27:44;;;;;;;8.68;1.60;;;;;;;;;;4991472;28;20030;-75
2023/03/27 06:30:11;;;;;;;12.02;1.73;;;;;;;;;;4992547;28;20033;-75
2023/03/27 06:32:42;;;;;;;10.23;1.90;;;;;;;;;;4992983;28;20509;-75
2023/03/27 06:35:08;;;;;;;11.15;1.60;;;;;;;;;;4991589;28;20409;-75
2023/03/27 06:37:35;;;;;;;14.10;2.00;;;;;;;;;;4992128;28;20026;-74
2023/03/27 06:40:02;;;;;;;10.18;1.50;;;;;;;;;;4992108;28;20383;-74
2023/03/27 06:42:28;;;;;;;10.02;1.70;;;;;;;;;;4991774;28;20058;-74
2023/03/27 06:44:53;;;;;;;9.82;1.95;;;;;;;;;;5007150;28;20078;-74
2023/03/27 06:47:19;;;;;;;13.77;2.05;;;;;;;;;;4991743;28;20092;-75
2023/03/27 06:49:46;;;;;;;15.23;2.03;;;;;;;;;;4992041;28;20037;-74
2023/03/27 06:52:13;;;;;;;10.77;1.63;;;;;;;;;;4991835;28;20088;-74
2023/03/27 06:54:39;;;;;;;14.40;1.83;;;;;;;;;;4990569;28;20120;-74
2023/03/27 06:57:05;;;;;;;10.10;1.75;;;;;;;;;;4991590;28;20109;-74
2023/03/27 06:59:30;;;;;;;11.48;1.92;;;;;;;;;;4990455;28;20184;-74
2023/03/27 07:01:56;;;;;;;10.65;1.70;;;;;;;;;;4991352;28;20026;-75
2023/03/27 07:04:21;;;;;;;13.25;1.85;;;;;;;;;;4992061;28;20026;-74
2023/03/27 07:06:55;;;;;;;12.68;1.88;;;;;;;;;;4992005;28;20027;-73
2023/03/27 07:09:21;;;;;;;11.82;1.75;;;;;;;;;;4990575;28;20034;-75
2023/03/27 07:12:18;;;;;;;10.40;1.50;;;;;;;;;;4992396;28;20392;-74
2023/03/27 07:14:44;;;;;;;13.98;1.70;;;;;;;;;;4991564;28;20126;-74
2023/03/27 07:17:10;;;;;;;10.50;1.85;;;;;;;;;;4992104;28;20109;-74
2023/03/27 07:19:35;;;;;;;12.02;2.17;;;;;;;;;;4990225;28;20595;-74
2023/03/27 07:22:01;;;;;;;15.65;1.83;;;;;;;;;;4991329;28;20068;-74
2023/03/27 07:24:26;;;;;;;12.15;1.90;;;;;;;;;;4991589;28;20027;-74
2023/03/27 07:26:52;;;;;;;14.10;2.22;;;;;;;;;;4991283;28;20022;-74
2023/03/27 07:29:17;;;;;;;10.95;1.75;;;;;;;;;;4991315;28;20037;-74
2023/03/27 07:31:43;;;;;;;11.90;2.00;;;;;;;;;;4991245;28;20062;-74
2023/03/27 07:34:09;;;;;;;12.50;1.60;;;;;;;;;;4992420;28;20049;-74
2023/03/27 07:36:37;;;;;;;14.18;3.60;;;;;;;;;;4990459;28;20034;-74
2023/03/27 07:39:03;;;;;;;14.32;2.17;;;;;;;;;;4991379;28;20030;-74
2023/03/27 07:41:30;;;;;;;13.15;1.60;;;;;;;;;;4991035;28;20076;-75
2023/03/27 07:43:56;;;;;;;18.15;2.03;;;;;;;;;;4990914;28;20576;-74
2023/03/27 07:46:22;;;;;;;14.05;1.60;;;;;;;;;;4991074;28;20109;-73
2023/03/27 07:48:49;;;;;;;17.50;1.60;;;;;;;;;;5005892;28;20018;-75
2023/03/27 07:51:16;;;;;;;13.98;1.98;;;;;;;;;;5005978;28;20397;-75
2023/03/27 07:54:50;;;;;;;12.63;1.80;;;;;;;;;;4991291;28;20101;-75
2023/03/27 07:57:15;;;;;;;10.90;1.73;;;;;;;;;;4911381;28;20575;-74
2023/03/27 07:59:45;;;;;;;12.93;2.03;;;;;;;;;;4990850;28;20109;-75
2023/03/27 08:02:10;;;;;;;13.98;2.08;;;;;;;;;;4991016;28;20113;-74
2023/03/27 08:04:37;;;;;;;17.33;2.38;;;;;;;;;;4993075;28;20534;-74
2023/03/27 08:07:10;;;;;;;13.00;1.90;;;;;;;;;;4993324;28;20145;-75
2023/03/27 08:09:36;;;;;;;12.13;2.20;;;;;;;;;;4996030;28;20030;-75
2023/03/27 08:12:02;;;;;;;12.98;1.67;;;;;;;;;;4994055;28;20027;-75
2023/03/27 08:14:28;;;;;;;12.70;2.45;;;;;;;;;;4976068;28;20207;-75
2023/03/27 08:16:57;;;;;;;16.17;1.98;;;;;;;;;;4994608;28;20650;-75
2023/03/27 08:19:24;;;;;;;13.88;1.67;;;;;;;;;;5009534;28;20057;-75
2023/03/27 08:21:51;;;;;;;11.27;1.70;;;;;;;;;;4992481;28;20093;-75
2023/03/27 08:24:24;;;;;;;9.63;1.52;;;;;;;;;;4994662;28;20038;-75
2023/03/27 08:26:50;;;;;;;16.27;1.73;;;;;;;;;;4997190;28;20110;-75
2023/03/27 08:29:22;;;;;;;15.05;1.90;;;;;;;;;;4997996;28;20038;-75
2023/03/27 08:31:49;;;;;;;10.98;1.58;;;;;;;;;;4996151;28;20509;-76
2023/03/27 08:34:18;;;;;;;10.82;1.42;;;;;;;;;;4997885;28;20042;-73
2023/03/27 08:36:45;;;;;;;10.13;1.75;;;;;;;;;;4998096;28;20026;-74
2023/03/27 08:39:21;;;;;;;15.68;1.83;;;;;;;;;;4999062;28;20058;-74
2023/03/27 08:42:02;;;;;;;12.18;2.03;;;;;;;;;;4996623;28;20113;-75
2023/03/27 08:44:35;;;;;;;13.07;1.80;;;;;;;;;;4995946;28;20042;-75
2023/03/27 08:47:35;;;;;;;14.05;2.17;;;;;;;;;;4996078;28;20022;-75
2023/03/27 08:50:16;;;;;;;11.75;2.10;;;;;;;;;;4993972;28;20100;-75
2023/03/27 08:52:46;;;;;;;13.38;1.90;;;;;;;;;;4993902;28;20080;-75
2023/03/27 08:55:24;;;;;;;15.77;2.13;;;;;;;;;;4995753;28;20022;-75
2023/03/27 08:57:55;;;;;;;12.25;1.90;;;;;;;;;;4995227;28;20540;-75
2023/03/27 09:00:22;;;;;;;;;;;;;;;;;;4994563;28;20073;-74
2023/03/27 09:03:23;;;;;;;13.18;1.75;;;;;;;;;;4995524;28;19921;-75
2023/03/27 09:06:18;;;;;;;11.15;1.70;;;;;;;;;;4973979;28;20417;-75
2023/03/27 09:09:12;;;;;;;11.35;1.77;;;;;;;;;;4992736;28;20401;-74
2023/03/27 09:11:44;;;;;;;9.65;1.58;;;;;;;;;;4992827;28;20030;-74
2023/03/27 09:14:24;;;;;;;12.32;1.58;;;;;;;;;;4993750;28;20058;-73
2023/03/27 09:16:52;;;;;;;12.75;1.60;;;;;;;;;;4993722;28;20049;-74
2023/03/27 09:19:30;;;;;;;9.32;1.60;;;;;;;;;;4993496;28;20500;-75
2023/03/27 09:22:17;;;;;;;10.38;1.65;;;;;;;;;;4992265;28;20121;-74
2023/03/27 09:24:47;;;;;;;8.02;1.30;;;;;;;;;;4993661;28;20026;-76
2023/03/27 09:27:22;;;;;;;11.75;1.63;;;;;;;;;;4993615;28;20557;-74
2023/03/27 09:30:17;;;;;;;7.05;1.42;;;;;;;;;;4992139;28;20046;-74
2023/03/27 09:32:44;;;;;;;7.28;1.20;;;;;;;;;;4994161;28;20023;-73
2023/03/27 09:35:19;;;;;;;6.60;1.45;;;;;;;;;;4994474;28;20134;-74
2023/03/27 09:37:47;;;;;;;7.68;1.20;;;;;;;;;;5008920;28;20083;-76
2023/03/27 09:40:22;;;;;;;7.22;1.17;;;;;;;;;;4994255;28;20069;-75
2023/03/27 09:42:50;;;;;;;7.60;1.50;;;;;;;;;;5009477;28;20030;-77
2023/03/27 09:45:16;;;;;;;8.55;1.35;;;;;;;;;;4994855;28;20425;-76
2023/03/27 09:48:00;;;;;;;7.97;1.58;;;;;;;;;;4994327;28;20026;-75
2023/03/27 09:50:37;;;;;;;10.50;1.80;;;;;;;;;;4994155;28;20028;-74
2023/03/27 09:53:15;;;;;;;6.80;1.50;;;;;;;;;;4993511;28;20026;-75
2023/03/27 09:55:51;;;;;;;8.48;1.50;;;;;;;;;;4992958;28;20022;-74
2023/03/27 09:58:26;;;;;;;7.05;1.48;;;;;;;;;;4992747;28;20033;-74
2023/03/27 10:01:15;;;;;;;9.90;1.35;;;;;;;;;;4993017;28;20042;-74
2023/03/27 10:03:54;;;;;;;5.75;1.25;;;;;;;;;;4992936;28;20030;-75
2023/03/27 10:06:29;;;;;;;9.35;1.45;;;;;;;;;;4992227;28;20049;-75
2023/03/27 10:09:01;;;;;;;7.72;1.25;;;;;;;;;;4992457;28;20033;-74
2023/03/27 10:11:31;;;;;;;8.80;1.20;;;;;;;;;;4992695;28;20046;-75
2023/03/27 10:13:59;;;;;;;7.88;0.95;;;;;;;;;;4992427;28;20058;-74
2023/03/27 10:16:26;;;;;;;4.30;1.00;;;;;;;;;;4992558;28;20049;-74
2023/03/27 10:18:57;;;;;;;8.23;1.15;;;;;;;;;;4992335;28;20026;-75
2023/03/27 10:21:27;;;;;;;5.57;1.10;;;;;;;;;;4992356;28;20441;-74
2023/03/27 10:24:00;;;;;;;8.10;1.40;;;;;;;;;;4992388;28;20532;-75
2023/03/27 10:26:29;;;;;;;4.25;1.00;;;;;;;;;;4992364;28;20113;-74
2023/03/27 10:29:00;;;;;;;7.47;1.50;;;;;;;;;;4992235;28;20022;-75
2023/03/27 10:31:36;;;;;;;4.88;1.00;;;;;;;;;;4992191;28;20034;-75
2023/03/27 10:34:05;;;;;;;5.93;1.20;;;;;;;;;;4992254;28;20019;-74
2023/03/27 10:36:38;;;;;;;5.25;0.93;;;;;;;;;;4992030;28;20499;-74
2023/03/27 10:39:11;;;;;;;4.80;1.10;;;;;;;;;;4990690;28;20027;-74
2023/03/27 10:41:38;;;;;;;7.13;1.00;;;;;;;;;;4990759;28;20101;-74
2023/03/27 10:44:26;;;;;;;3.30;1.00;;;;;;;;;;4992077;28;20034;-75
2023/03/27 10:46:52;;;;;;;4.47;1.25;;;;;;;;;;4992080;28;20022;-74
2023/03/27 10:49:44;;;;;;;5.25;1.17;;;;;;;;;;5005770;28;20033;-74
2023/03/27 10:52:20;;;;;;;3.20;0.77;;;;;;;;;;4991794;28;20029;-75
2023/03/27 10:54:52;;;;;;;5.53;0.80;;;;;;;;;;4992029;28;20539;-73
2023/03/27 10:57:18;;;;;;;6.38;0.90;;;;;;;;;;4991844;28;20499;-73
2023/03/27 10:59:47;;;;;;;6.57;0.98;;;;;;;;;;4991724;28;20113;-75
2023/03/27 11:02:27;;;;;;;3.10;0.80;;;;;;;;;;4991938;28;20041;-75
2023/03/27 11:05:24;;;;;;;4.82;0.75;;;;;;;;;;4991698;28;20026;-74
2023/03/27 11:08:01;;;;;;;4.57;0.75;;;;;;;;;;4986985;28;20038;-75
2023/03/27 11:10:38;;;;;;;4.45;0.95;;;;;;;;;;4991613;28;20112;-74
2023/03/27 11:13:13;;;;;;;6.82;1.08;;;;;;;;;;4991535;28;20033;-75
2023/03/27 11:15:43;;;;;;;4.80;0.80;;;;;;;;;;4991591;28;20129;-74
2023/03/27 11:18:13;;;;;;;2.30;0.60;;;;;;;;;;4991625;28;20370;-75
2023/03/27 11:20:46;;;;;;;2.63;0.80;;;;;;;;;;4989819;28;20089;-74
2023/03/27 11:23:20;;;;;;;3.95;0.90;;;;;;;;;;4991438;28;20041;-74
2023/03/27 11:25:50;;;;;;;5.57;1.17;;;;;;;;;;4992101;28;20114;-74
2023/03/27 11:29:04;;;;;;;7.50;1.10;;;;;;;;;;4991088;28;20058;-74
2023/03/27 11:31:39;;;;;;;5.07;1.10;;;;;;;;;;4979558;28;20043;-73
2023/03/27 11:34:24;;;;;;;5.15;0.80;;;;;;;;;;4991310;28;20374;-75
2023/03/27 11:37:32;;;;;;;4.50;0.90;;;;;;;;;;4990916;28;20080;-75
2023/03/27 11:40:21;;;;;;;2.08;0.77;;;;;;;;;;4980506;28;20100;-74
2023/03/27 11:42:46;;;;;;;4.78;0.80;;;;;;;;;;4990734;28;20042;-74
2023/03/27 11:45:15;;;;;;;3.17;0.93;;;;;;;;;;4991315;28;20030;-74
2023/03/27 11:48:14;;;;;;;2.75;0.75;;;;;;;;;;4991106;28;20030;-74
2023/03/27 11:50:47;;;;;;;4.07;0.80;;;;;;;;;;4991447;28;20069;-73
2023/03/27 11:56:53;;;;;;;3.15;0.90;;;;;;;;;;4974639;28;20402;-73
2023/03/27 11:59:18;;;;;;;3.92;0.90;;;;;;;;;;4990724;28;20172;-74
2023/03/27 12:02:08;;;;;;;4.43;0.90;;;;;;;;;;4990746;28;20119;-75
2023/03/27 12:04:42;;;;;;;3.85;0.73;;;;;;;;;;4991575;28;20030;-74
2023/03/27 12:07:30;;;;;;;3.63;0.85;;;;;;;;;;4990836;28;20030;-74
2023/03/27 12:10:17;;;;;;;3.53;0.80;;;;;;;;;;4990695;28;20073;-75
2023/03/27 12:12:49;;;;;;;4.45;0.82;;;;;;;;;;4990613;28;20034;-74
2023/03/27 12:15:29;;;;;;;4.03;0.75;;;;;;;;;;4989153;28;20069;-74
2023/03/27 12:18:14;;;;;;;;;;;;;;;;;;4991151;28;20082;-75
2023/03/27 12:20:51;;;;;;;2.92;0.50;;;;;;;;;;4990513;28;19914;-75
2023/03/27 12:23:37;;;;;;;3.55;0.70;;;;;;;;;;4990487;28;20030;-74
2023/03/27 12:26:33;;;;;;;4.10;0.68;;;;;;;;;;4986044;28;20046;-75
2023/03/27 12:29:13;;;;;;;2.45;0.75;;;;;;;;;;4990730;28;20084;-75
2023/03/27 12:31:38;;;;;;;4.00;0.77;;;;;;;;;;4990793;28;20027;-74
2023/03/27 12:34:14;;;;;;;5.97;0.93;;;;;;;;;;4990568;28;20034;-75
2023/03/27 12:36:44;;;;;;;2.58;0.77;;;;;;;;;;4990202;28;20076;-74
2023/03/27 12:39:23;;;;;;;3.17;0.70;;;;;;;;;;4990621;28;20037;-74
2023/03/27 12:41:49;;;;;;;3.63;0.70;;;;;;;;;;4990719;28;20465;-74
2023/03/27 12:44:17;;;;;;;6.75;1.13;;;;;;;;;;4990439;28;20088;-74
2023/03/27 12:47:02;;;;;;;3.10;0.90;;;;;;;;;;4990528;28;20026;-74
2023/03/27 12:49:40;;;;;;;2.90;1.10;;;;;;;;;;4990308;28;20045;-75
2023/03/27 12:52:05;;;;;;;5.20;0.70;;;;;;;;;;5005194;28;20028;-74
2023/03/27 12:54:37;;;;;;;2.88;0.80;;;;;;;;;;4990356;28;20046;-75
2023/03/27 12:57:15;;;;;;;2.10;0.60;;;;;;;;;;4990322;28;20089;-73
2023/03/27 13:00:09;;;;;;;2.75;0.80;;;;;;;;;;4990184;28;20031;-73
2023/03/27 13:02:43;;;;;;;6.40;0.77;;;;;;;;;;4990176;28;20430;-75
2023/03/27 13:05:55;;;;;;;4.68;0.90;;;;;;;;;;4990396;28;20156;-74
2023/03/27 13:08:36;;;;;;;1.92;0.80;;;;;;;;;;4990325;28;20453;-74
2023/03/27 13:11:23;;;;;;;4.60;0.75;;;;;;;;;;4990112;28;20117;-74
2023/03/27 13:13:57;;;;;;;4.03;0.60;;;;;;;;;;4992951;28;20046;-73
2023/03/27 13:16:44;;;;;;;3.60;0.63;;;;;;;;;;4992712;28;20029;-74
2023/03/27 13:19:30;;;;;;;3.38;0.80;;;;;;;;;;4992671;28;20123;-76
2023/03/27 13:22:17;;;;;;;5.10;0.73;;;;;;;;;;4992401;28;20478;-73
2023/03/27 13:24:52;;;;;;;3.88;1.13;;;;;;;;;;4993544;28;20630;-74
2023/03/27 13:27:38;;;;;;;2.25;0.68;;;;;;;;;;4993475;28;20027;-74
2023/03/27 13:30:05;;;;;;;5.45;1.00;;;;;;;;;;4993231;28;20038;-74
2023/03/27 13:32:38;;;;;;;3.28;0.75;;;;;;;;;;5008538;28;20034;-74
2023/03/27 13:35:16;;;;;;;3.03;0.95;;;;;;;;;;4993356;28;20615;-74
2023/03/27 13:37:48;;;;;;;2.83;0.70;;;;;;;;;;4993270;28;20070;-74
2023/03/27 13:40:23;;;;;;;5.38;1.10;;;;;;;;;;4993203;28;20558;-74
2023/03/27 13:43:13;;;;;;;7.13;0.82;;;;;;;;;;4993030;28;20118;-74
2023/03/27 13:45:48;;;;;;;2.33;0.57;;;;;;;;;;4993186;28;20034;-74
2023/03/27 13:48:49;;;;;;;3.95;0.80;;;;;;;;;;4993068;28;20048;-74
2023/03/27 13:51:39;;;;;;;4.88;0.80;;;;;;;;;;4992791;28;20031;-74
2023/03/27 13:54:45;;;;;;;2.77;1.00;;;;;;;;;;4993235;28;20141;-74
2023/03/27 13:57:26;;;;;;;4.68;0.95;;;;;;;;;;4993228;28;20022;-74
2023/03/27 13:59:57;;;;;;;3.42;0.77;;;;;;;;;;4993047;28;20046;-74
2023/03/27 14:02:35;;;;;;;2.50;0.68;;;;;;;;;;4991537;28;20041;-74
2023/03/27 14:05:25;;;;;;;2.15;0.70;;;;;;;;;;4991600;28;20049;-74
2023/03/27 14:08:08;;;;;;;1.85;0.50;;;;;;;;;;4992898;28;20027;-74
2023/03/27 14:10:42;;;;;;;3.53;0.70;;;;;;;;;;4993261;28;20029;-74
2023/03/27 14:13:14;;;;;;;3.40;0.88;;;;;;;;;;4992650;28;20030;-74
2023/03/27 14:15:58;;;;;;;2.58;0.65;;;;;;;;;;4992713;28;20333;-74
2023/03/27 14:18:44;;;;;;;2.88;0.60;;;;;;;;;;4992509;28;20026;-74
2023/03/27 14:21:15;;;;;;;3.25;0.88;;;;;;;;;;4992145;28;20280;-74
2023/03/27 14:23:59;;;;;;;2.60;0.80;;;;;;;;;;4992117;28;20030;-74
2023/03/27 14:26:28;;;;;;;2.60;0.70;;;;;;;;;;4992512;28;20038;-75
2023/03/27 14:28:59;;;;;;;3.80;0.65;;;;;;;;;;4992267;28;20079;-76
2023/03/27 14:31:27;;;;;;;2.97;0.60;;;;;;;;;;4992223;28;20030;-74
2023/03/27 14:33:59;;;;;;;4.68;0.73;;;;;;;;;;4992357;28;20018;-74
2023/03/27 14:36:27;;;;;;;4.18;0.68;;;;;;;;;;4991969;28;20677;-74
2023/03/27 14:38:53;;;;;;;4.20;1.20;;;;;;;;;;4992142;28;20069;-74
2023/03/27 14:41:25;;;;;;;2.92;0.88;;;;;;;;;;5006987;28;20034;-74
2023/03/27 14:43:51;;;;;;;5.32;0.85;;;;;;;;;;4992076;28;20030;-74
2023/03/27 14:46:20;;;;;;;4.28;0.93;;;;;;;;;;4992263;28;20034;-73
2023/03/27 14:48:50;;;;;;;4.10;0.80;;;;;;;;;;4991911;28;20428;-74
2023/03/27 14:51:23;;;;;;;4.07;0.70;;;;;;;;;;4990393;28;20027;-74
2023/03/27 14:53:54;;;;;;;4.85;0.95;;;;;;;;;;4992010;28;20027;-76
2023/03/27 14:56:23;;;;;;;3.55;0.85;;;;;;;;;;4991836;28;20085;-76
2023/03/27 14:58:50;;;;;;;4.10;1.00;;;;;;;;;;4990248;28;20066;-75
2023/03/27 15:01:16;;;;;;;3.05;0.80;;;;;;;;;;4991521;28;20561;-75
2023/03/27 15:03:44;;;;;;;4.70;0.70;;;;;;;;;;4991740;28;20609;-74
2023/03/27 15:06:25;;;;;;;3.25;0.60;;;;;;;;;;4991664;28;20057;-74
2023/03/27 15:09:04;;;;;;;2.15;0.70;;;;;;;;;;4991585;28;20030;-74
2023/03/27 15:11:36;;;;;;;2.33;0.70;;;;;;;;;;4989966;28;20132;-73
2023/03/27 15:14:01;;;;;;;1.80;0.65;;;;;;;;;;4991237;28;20541;-75
2023/03/27 15:16:29;;;;;;;2.28;0.73;;;;;;;;;;4991346;28;20034;-76
2023/03/27 15:19:08;;;;;;;2.58;0.70;;;;;;;;;;4991590;28;20022;-75